sensor_id;sensor_type;location;lat;lon;timestamp;temperature;humidity
18456;DHT22;9357;49.900;8.208;2023-07-29T00:00:54;19.90;99.90
18456;DHT22;9357;49.900;8.208;2023-07-29T00:02:27;19.90;99.90
18456;DHT22;9357;49.900;8.208;2023-07-29T00:04:02;19.70;99.90
18456;DHT22;9357;49.900;8.208;2023-07-29T00:05:34;19.80;99.90
18456;DHT22;9357;49.900;8.208;2023-07-29T00:07:07;19.70;99.90
18456;DHT22;9357;49.900;8.208;2023-07-29T00:08:39;19.70;99.90
18456;DHT22;9357;49.900;8.208;2023-07-29T00:10:12;19.60;99.90
18456;DHT22;9357;49.900;8.208;2023-07-29T00:11:43;19.60;99.90
18456;DHT22;9357;49.900;8.208;2023-07-29T00:13:17;19.60;99.90
18456;DHT22;9357;49.900;8.208;2023-07-29T00:14:53;19.60;99.90
18456;DHT22;9357;49.900;8.208;2023-07-29T00:16:25;19.50;99.90
18456;DHT22;9357;49.900;8.208;2023-07-29T00:17:59;19.50;99.90
18456;DHT22;9357;49.900;8.208;2023-07-29T00:19:30;19.50;99.90
18456;DHT22;9357;49.900;8.208;2023-07-29T00:21:04;19.40;99.90
18456;DHT22;9357;49.900;8.208;2023-07-29T00:22:36;19.40;99.90
18456;DHT22;9357;49.900;8.208;2023-07-29T00:24:09;19.40;99.90
18456;DHT22;9357;49.900;8.208;2023-07-29T00:25:42;19.40;99.90
18456;DHT22;9357;49.900;8.208;2023-07-29T00:27:13;19.40;99.90
18456;DHT22;9357;49.900;8.208;2023-07-29T00:28:47;19.40;99.90
18456;DHT22;9357;49.900;8.208;2023-07-29T00:30:19;19.40;99.90
18456;DHT22;9357;49.900;8.208;2023-07-29T00:31:52;19.50;99.90
18456;DHT22;9357;49.900;8.208;2023-07-29T00:33:24;19.50;99.90
18456;DHT22;9357;49.900;8.208;2023-07-29T00:34:57;19.50;99.90
18456;DHT22;9357;49.900;8.208;2023-07-29T00:36:28;19.50;99.90
18456;DHT22;9357;49.900;8.208;2023-07-29T00:38:01;19.50;99.90
18456;DHT22;9357;49.900;8.208;2023-07-29T00:39:33;19.50;99.90
18456;DHT22;9357;49.900;8.208;2023-07-29T00:41:06;19.50;99.90
18456;DHT22;9357;49.900;8.208;2023-07-29T00:42:38;19.60;99.90
18456;DHT22;9357;49.900;8.208;2023-07-29T00:44:12;19.50;99.90
18456;DHT22;9357;49.900;8.208;2023-07-29T00:45:45;19.50;99.90
18456;DHT22;9357;49.900;8.208;2023-07-29T00:47:18;19.50;99.90
18456;DHT22;9357;49.900;8.208;2023-07-29T00:48:51;19.60;99.90
18456;DHT22;9357;49.900;8.208;2023-07-29T00:50:23;19.50;99.90
18456;DHT22;9357;49.900;8.208;2023-07-29T00:51:56;19.60;99.90
18456;DHT22;9357;49.900;8.208;2023-07-29T00:53:28;19.60;99.90
18456;DHT22;9357;49.900;8.208;2023-07-29T00:55:01;19.60;99.90
18456;DHT22;9357;49.900;8.208;2023-07-29T00:56:33;19.60;99.90
18456;DHT22;9357;49.900;8.208;2023-07-29T00:58:07;19.60;99.90
18456;DHT22;9357;49.900;8.208;2023-07-29T00:59:41;19.60;99.90
18456;DHT22;9357;49.900;8.208;2023-07-29T01:01:13;19.60;99.90
18456;DHT22;9357;49.900;8.208;2023-07-29T01:02:46;19.60;99.90
18456;DHT22;9357;49.900;8.208;2023-07-29T01:04:18;19.60;99.90
18456;DHT22;9357;49.900;8.208;2023-07-29T01:05:59;19.60;99.90
18456;DHT22;9357;49.900;8.208;2023-07-29T01:07:38;19.50;99.90
18456;DHT22;9357;49.900;8.208;2023-07-29T01:09:17;19.40;99.90
18456;DHT22;9357;49.900;8.208;2023-07-29T01:10:56;19.40;99.90
18456;DHT22;9357;49.900;8.208;2023-07-29T01:12:39;19.40;99.90
18456;DHT22;9357;49.900;8.208;2023-07-29T01:14:19;19.40;99.90
18456;DHT22;9357;49.900;8.208;2023-07-29T01:15:58;19.30;99.90
18456;DHT22;9357;49.900;8.208;2023-07-29T01:17:33;19.30;99.90
18456;DHT22;9357;49.900;8.208;2023-07-29T01:19:25;19.40;99.90
18456;DHT22;9357;49.900;8.208;2023-07-29T01:21:04;19.40;99.90
18456;DHT22;9357;49.900;8.208;2023-07-29T01:22:38;19.50;99.90
18456;DHT22;9357;49.900;8.208;2023-07-29T01:24:12;19.40;99.90
18456;DHT22;9357;49.900;8.208;2023-07-29T01:25:45;19.40;99.90
18456;DHT22;9357;49.900;8.208;2023-07-29T01:27:17;19.40;99.90
18456;DHT22;9357;49.900;8.208;2023-07-29T01:28:50;19.40;99.90
18456;DHT22;9357;49.900;8.208;2023-07-29T01:30:31;19.40;99.90
18456;DHT22;9357;49.900;8.208;2023-07-29T01:32:11;19.40;99.90
18456;DHT22;9357;49.900;8.208;2023-07-29T01:33:51;19.40;99.90
18456;DHT22;9357;49.900;8.208;2023-07-29T01:35:36;19.40;99.90
18456;DHT22;9357;49.900;8.208;2023-07-29T01:37:14;19.30;99.90
18456;DHT22;9357;49.900;8.208;2023-07-29T01:38:48;19.30;99.90
18456;DHT22;9357;49.900;8.208;2023-07-29T01:40:25;19.30;99.90
18456;DHT22;9357;49.900;8.208;2023-07-29T01:41:58;19.20;99.90
18456;DHT22;9357;49.900;8.208;2023-07-29T01:43:31;19.20;99.90
18456;DHT22;9357;49.900;8.208;2023-07-29T01:45:04;19.20;99.90
18456;DHT22;9357;49.900;8.208;2023-07-29T01:46:37;19.20;99.90
18456;DHT22;9357;49.900;8.208;2023-07-29T01:48:09;19.20;99.90
18456;DHT22;9357;49.900;8.208;2023-07-29T01:49:42;19.20;99.90
18456;DHT22;9357;49.900;8.208;2023-07-29T01:51:14;19.20;99.90
18456;DHT22;9357;49.900;8.208;2023-07-29T01:52:46;19.10;99.90
18456;DHT22;9357;49.900;8.208;2023-07-29T01:54:18;19.10;99.90
18456;DHT22;9357;49.900;8.208;2023-07-29T01:55:52;19.20;99.90
18456;DHT22;9357;49.900;8.208;2023-07-29T01:57:24;19.10;99.90
18456;DHT22;9357;49.900;8.208;2023-07-29T01:58:57;19.10;99.90
18456;DHT22;9357;49.900;8.208;2023-07-29T02:00:29;19.10;99.90
18456;DHT22;9357;49.900;8.208;2023-07-29T02:02:02;19.10;99.90
18456;DHT22;9357;49.900;8.208;2023-07-29T02:03:34;19.10;99.90
18456;DHT22;9357;49.900;8.208;2023-07-29T02:05:07;19.10;99.90
18456;DHT22;9357;49.900;8.208;2023-07-29T02:06:39;19.10;99.90
18456;DHT22;9357;49.900;8.208;2023-07-29T02:08:11;19.10;99.90
18456;DHT22;9357;49.900;8.208;2023-07-29T02:09:43;19.20;99.90
18456;DHT22;9357;49.900;8.208;2023-07-29T02:11:17;19.20;99.90
18456;DHT22;9357;49.900;8.208;2023-07-29T02:12:51;19.20;99.90
18456;DHT22;9357;49.900;8.208;2023-07-29T02:14:24;19.30;99.90
18456;DHT22;9357;49.900;8.208;2023-07-29T02:15:56;19.40;99.90
18456;DHT22;9357;49.900;8.208;2023-07-29T02:17:29;19.40;99.90
18456;DHT22;9357;49.900;8.208;2023-07-29T02:19:00;19.40;99.90
18456;DHT22;9357;49.900;8.208;2023-07-29T02:20:33;19.40;99.90
18456;DHT22;9357;49.900;8.208;2023-07-29T02:22:06;19.30;99.90
18456;DHT22;9357;49.900;8.208;2023-07-29T02:23:38;19.30;99.90
18456;DHT22;9357;49.900;8.208;2023-07-29T02:25:11;19.30;99.90
18456;DHT22;9357;49.900;8.208;2023-07-29T02:26:44;19.30;99.90
18456;DHT22;9357;49.900;8.208;2023-07-29T02:28:16;19.40;99.90
18456;DHT22;9357;49.900;8.208;2023-07-29T02:29:48;19.30;99.90
18456;DHT22;9357;49.900;8.208;2023-07-29T02:31:23;19.30;99.90
18456;DHT22;9357;49.900;8.208;2023-07-29T02:32:55;19.30;99.90
18456;DHT22;9357;49.900;8.208;2023-07-29T02:34:28;19.40;99.90
18456;DHT22;9357;49.900;8.208;2023-07-29T02:35:59;19.40;99.90
18456;DHT22;9357;49.900;8.208;2023-07-29T02:37:32;19.40;99.90
18456;DHT22;9357;49.900;8.208;2023-07-29T02:39:04;19.50;99.90
18456;DHT22;9357;49.900;8.208;2023-07-29T02:40:37;19.50;99.90
18456;DHT22;9357;49.900;8.208;2023-07-29T02:42:11;19.50;99.90
18456;DHT22;9357;49.900;8.208;2023-07-29T02:43:47;19.50;99.90
18456;DHT22;9357;49.900;8.208;2023-07-29T02:45:19;19.50;99.90
18456;DHT22;9357;49.900;8.208;2023-07-29T02:46:52;19.50;99.90
18456;DHT22;9357;49.900;8.208;2023-07-29T02:48:26;19.50;99.90
18456;DHT22;9357;49.900;8.208;2023-07-29T02:49:59;19.40;99.90
18456;DHT22;9357;49.900;8.208;2023-07-29T02:51:32;19.40;99.90
18456;DHT22;9357;49.900;8.208;2023-07-29T02:53:04;19.40;99.90
18456;DHT22;9357;49.900;8.208;2023-07-29T02:54:36;19.40;99.90
18456;DHT22;9357;49.900;8.208;2023-07-29T02:56:09;19.30;99.90
18456;DHT22;9357;49.900;8.208;2023-07-29T02:57:43;19.20;99.90
18456;DHT22;9357;49.900;8.208;2023-07-29T02:59:14;19.20;99.90
18456;DHT22;9357;49.900;8.208;2023-07-29T03:00:47;19.20;99.90
18456;DHT22;9357;49.900;8.208;2023-07-29T03:02:20;19.10;99.90
18456;DHT22;9357;49.900;8.208;2023-07-29T03:03:53;19.10;99.90
18456;DHT22;9357;49.900;8.208;2023-07-29T03:05:26;19.10;99.90
18456;DHT22;9357;49.900;8.208;2023-07-29T03:06:59;19.10;99.90
18456;DHT22;9357;49.900;8.208;2023-07-29T03:08:31;19.10;99.90
18456;DHT22;9357;49.900;8.208;2023-07-29T03:10:05;19.10;99.90
18456;DHT22;9357;49.900;8.208;2023-07-29T03:11:38;19.10;99.90
18456;DHT22;9357;49.900;8.208;2023-07-29T03:13:11;19.10;99.90
18456;DHT22;9357;49.900;8.208;2023-07-29T03:14:47;19.10;99.90
18456;DHT22;9357;49.900;8.208;2023-07-29T03:16:19;19.00;99.90
18456;DHT22;9357;49.900;8.208;2023-07-29T03:17:52;19.10;99.90
18456;DHT22;9357;49.900;8.208;2023-07-29T03:19:24;19.00;99.90
18456;DHT22;9357;49.900;8.208;2023-07-29T03:20:56;19.00;99.90
18456;DHT22;9357;49.900;8.208;2023-07-29T03:22:28;19.00;99.90
18456;DHT22;9357;49.900;8.208;2023-07-29T03:24:01;19.00;99.90
18456;DHT22;9357;49.900;8.208;2023-07-29T03:25:33;19.00;99.90
18456;DHT22;9357;49.900;8.208;2023-07-29T03:27:05;19.00;99.90
18456;DHT22;9357;49.900;8.208;2023-07-29T03:28:42;19.10;99.90
18456;DHT22;9357;49.900;8.208;2023-07-29T03:30:14;19.10;99.90
18456;DHT22;9357;49.900;8.208;2023-07-29T03:31:46;19.10;99.90
18456;DHT22;9357;49.900;8.208;2023-07-29T03:33:18;19.10;99.90
18456;DHT22;9357;49.900;8.208;2023-07-29T03:34:51;19.10;99.90
18456;DHT22;9357;49.900;8.208;2023-07-29T03:36:23;19.10;99.90
18456;DHT22;9357;49.900;8.208;2023-07-29T03:37:57;19.10;99.90
18456;DHT22;9357;49.900;8.208;2023-07-29T03:39:29;19.10;99.90
18456;DHT22;9357;49.900;8.208;2023-07-29T03:41:01;19.10;99.90
18456;DHT22;9357;49.900;8.208;2023-07-29T03:42:34;19.10;99.90
18456;DHT22;9357;49.900;8.208;2023-07-29T03:44:08;19.10;99.90
18456;DHT22;9357;49.900;8.208;2023-07-29T03:45:40;19.10;99.90
18456;DHT22;9357;49.900;8.208;2023-07-29T03:47:12;19.10;99.90
18456;DHT22;9357;49.900;8.208;2023-07-29T03:48:45;19.10;99.90
18456;DHT22;9357;49.900;8.208;2023-07-29T03:50:16;19.20;99.90
18456;DHT22;9357;49.900;8.208;2023-07-29T03:51:49;19.10;99.90
18456;DHT22;9357;49.900;8.208;2023-07-29T03:53:21;19.10;99.90
18456;DHT22;9357;49.900;8.208;2023-07-29T03:54:54;19.10;99.90
18456;DHT22;9357;49.900;8.208;2023-07-29T03:56:25;19.10;99.90
18456;DHT22;9357;49.900;8.208;2023-07-29T03:57:59;19.10;99.90
18456;DHT22;9357;49.900;8.208;2023-07-29T03:59:32;19.10;99.90
18456;DHT22;9357;49.900;8.208;2023-07-29T04:01:05;19.10;99.90
18456;DHT22;9357;49.900;8.208;2023-07-29T04:02:37;19.10;99.90
18456;DHT22;9357;49.900;8.208;2023-07-29T04:04:10;19.10;99.90
18456;DHT22;9357;49.900;8.208;2023-07-29T04:05:42;19.10;99.90
18456;DHT22;9357;49.900;8.208;2023-07-29T04:07:15;19.10;99.90
18456;DHT22;9357;49.900;8.208;2023-07-29T04:08:47;19.10;99.90
18456;DHT22;9357;49.900;8.208;2023-07-29T04:10:20;19.00;99.90
18456;DHT22;9357;49.900;8.208;2023-07-29T04:11:51;19.00;99.90
18456;DHT22;9357;49.900;8.208;2023-07-29T04:13:24;19.00;99.90
18456;DHT22;9357;49.900;8.208;2023-07-29T04:14:57;19.00;99.90
18456;DHT22;9357;49.900;8.208;2023-07-29T04:16:30;18.90;99.90
18456;DHT22;9357;49.900;8.208;2023-07-29T04:18:02;19.00;99.90
18456;DHT22;9357;49.900;8.208;2023-07-29T04:19:35;19.00;99.90
18456;DHT22;9357;49.900;8.208;2023-07-29T04:21:07;19.00;99.90
18456;DHT22;9357;49.900;8.208;2023-07-29T04:22:39;19.00;99.90
18456;DHT22;9357;49.900;8.208;2023-07-29T04:24:11;19.00;99.90
18456;DHT22;9357;49.900;8.208;2023-07-29T04:25:44;19.00;99.90
18456;DHT22;9357;49.900;8.208;2023-07-29T04:27:15;19.00;99.90
18456;DHT22;9357;49.900;8.208;2023-07-29T04:28:48;19.00;99.90
18456;DHT22;9357;49.900;8.208;2023-07-29T04:30:21;19.00;99.90
18456;DHT22;9357;49.900;8.208;2023-07-29T04:31:54;19.00;99.90
18456;DHT22;9357;49.900;8.208;2023-07-29T04:33:26;19.00;99.90
18456;DHT22;9357;49.900;8.208;2023-07-29T04:34:58;19.00;99.90
18456;DHT22;9357;49.900;8.208;2023-07-29T04:36:30;19.10;99.90
18456;DHT22;9357;49.900;8.208;2023-07-29T04:38:03;19.10;99.90
18456;DHT22;9357;49.900;8.208;2023-07-29T04:39:35;19.10;99.90
18456;DHT22;9357;49.900;8.208;2023-07-29T04:41:07;19.10;99.90
18456;DHT22;9357;49.900;8.208;2023-07-29T04:42:40;19.10;99.90
18456;DHT22;9357;49.900;8.208;2023-07-29T04:44:13;19.10;99.90
18456;DHT22;9357;49.900;8.208;2023-07-29T04:45:46;19.10;99.90
18456;DHT22;9357;49.900;8.208;2023-07-29T04:47:19;19.10;99.90
18456;DHT22;9357;49.900;8.208;2023-07-29T04:48:51;19.10;99.90
18456;DHT22;9357;49.900;8.208;2023-07-29T04:50:24;19.10;99.90
18456;DHT22;9357;49.900;8.208;2023-07-29T04:51:56;19.20;99.90
18456;DHT22;9357;49.900;8.208;2023-07-29T04:53:28;19.20;99.90
18456;DHT22;9357;49.900;8.208;2023-07-29T04:55:00;19.20;99.90
18456;DHT22;9357;49.900;8.208;2023-07-29T04:56:33;19.20;99.90
18456;DHT22;9357;49.900;8.208;2023-07-29T04:58:05;19.20;99.90
18456;DHT22;9357;49.900;8.208;2023-07-29T04:59:38;19.20;99.90
18456;DHT22;9357;49.900;8.208;2023-07-29T05:01:11;19.20;99.90
18456;DHT22;9357;49.900;8.208;2023-07-29T05:02:44;19.20;99.90
18456;DHT22;9357;49.900;8.208;2023-07-29T05:04:16;19.20;99.90
18456;DHT22;9357;49.900;8.208;2023-07-29T05:05:49;19.20;99.90
18456;DHT22;9357;49.900;8.208;2023-07-29T05:07:20;19.20;99.90
18456;DHT22;9357;49.900;8.208;2023-07-29T05:08:53;19.20;99.90
18456;DHT22;9357;49.900;8.208;2023-07-29T05:10:25;19.30;99.90
18456;DHT22;9357;49.900;8.208;2023-07-29T05:11:58;19.30;99.90
18456;DHT22;9357;49.900;8.208;2023-07-29T05:13:29;19.30;99.90
18456;DHT22;9357;49.900;8.208;2023-07-29T05:15:03;19.40;99.90
18456;DHT22;9357;49.900;8.208;2023-07-29T05:16:37;19.40;99.90
18456;DHT22;9357;49.900;8.208;2023-07-29T05:18:09;19.40;99.90
18456;DHT22;9357;49.900;8.208;2023-07-29T05:19:42;19.50;99.90
18456;DHT22;9357;49.900;8.208;2023-07-29T05:21:14;19.50;99.90
18456;DHT22;9357;49.900;8.208;2023-07-29T05:22:46;19.50;99.90
18456;DHT22;9357;49.900;8.208;2023-07-29T05:24:18;19.60;99.90
18456;DHT22;9357;49.900;8.208;2023-07-29T05:25:51;19.60;99.90
18456;DHT22;9357;49.900;8.208;2023-07-29T05:27:23;19.60;99.90
18456;DHT22;9357;49.900;8.208;2023-07-29T05:28:55;19.60;99.90
18456;DHT22;9357;49.900;8.208;2023-07-29T05:30:28;19.60;99.90
18456;DHT22;9357;49.900;8.208;2023-07-29T05:32:04;19.60;99.90
18456;DHT22;9357;49.900;8.208;2023-07-29T05:33:37;19.60;99.90
18456;DHT22;9357;49.900;8.208;2023-07-29T05:35:09;19.70;99.90
18456;DHT22;9357;49.900;8.208;2023-07-29T05:36:42;19.60;99.90
18456;DHT22;9357;49.900;8.208;2023-07-29T05:38:14;19.70;99.90
18456;DHT22;9357;49.900;8.208;2023-07-29T05:39:47;19.70;99.90
18456;DHT22;9357;49.900;8.208;2023-07-29T05:41:18;19.70;99.90
18456;DHT22;9357;49.900;8.208;2023-07-29T05:42:51;19.70;99.90
18456;DHT22;9357;49.900;8.208;2023-07-29T05:44:23;19.70;99.90
18456;DHT22;9357;49.900;8.208;2023-07-29T05:45:56;19.70;99.90
18456;DHT22;9357;49.900;8.208;2023-07-29T05:47:29;19.70;99.90
18456;DHT22;9357;49.900;8.208;2023-07-29T05:49:02;19.70;99.90
18456;DHT22;9357;49.900;8.208;2023-07-29T05:50:33;19.70;99.90
18456;DHT22;9357;49.900;8.208;2023-07-29T05:52:06;19.70;99.90
18456;DHT22;9357;49.900;8.208;2023-07-29T05:53:39;19.70;99.90
18456;DHT22;9357;49.900;8.208;2023-07-29T05:55:12;19.70;99.90
18456;DHT22;9357;49.900;8.208;2023-07-29T05:56:44;19.70;99.90
18456;DHT22;9357;49.900;8.208;2023-07-29T05:58:16;19.70;99.90
18456;DHT22;9357;49.900;8.208;2023-07-29T05:59:48;19.70;99.90
18456;DHT22;9357;49.900;8.208;2023-07-29T06:01:21;19.70;99.90
18456;DHT22;9357;49.900;8.208;2023-07-29T06:02:55;19.80;99.90
18456;DHT22;9357;49.900;8.208;2023-07-29T06:04:27;19.80;99.90
18456;DHT22;9357;49.900;8.208;2023-07-29T06:06:00;19.80;99.90
18456;DHT22;9357;49.900;8.208;2023-07-29T06:07:31;19.80;99.90
18456;DHT22;9357;49.900;8.208;2023-07-29T06:09:05;19.80;99.90
18456;DHT22;9357;49.900;8.208;2023-07-29T06:10:38;19.80;99.90
18456;DHT22;9357;49.900;8.208;2023-07-29T06:12:09;19.90;99.90
18456;DHT22;9357;49.900;8.208;2023-07-29T06:13:42;19.90;99.90
18456;DHT22;9357;49.900;8.208;2023-07-29T06:15:15;19.90;99.90
18456;DHT22;9357;49.900;8.208;2023-07-29T06:16:47;19.90;99.90
18456;DHT22;9357;49.900;8.208;2023-07-29T06:18:21;19.90;99.90
18456;DHT22;9357;49.900;8.208;2023-07-29T06:19:53;19.90;99.90
18456;DHT22;9357;49.900;8.208;2023-07-29T06:21:26;20.00;99.90
18456;DHT22;9357;49.900;8.208;2023-07-29T06:22:58;19.90;99.90
18456;DHT22;9357;49.900;8.208;2023-07-29T06:24:30;20.00;99.90
18456;DHT22;9357;49.900;8.208;2023-07-29T06:26:03;20.00;99.90
18456;DHT22;9357;49.900;8.208;2023-07-29T06:27:35;20.00;99.90
18456;DHT22;9357;49.900;8.208;2023-07-29T06:29:07;20.00;99.90
18456;DHT22;9357;49.900;8.208;2023-07-29T06:30:39;20.10;99.90
18456;DHT22;9357;49.900;8.208;2023-07-29T06:32:12;20.10;99.90
18456;DHT22;9357;49.900;8.208;2023-07-29T06:33:45;20.00;99.90
18456;DHT22;9357;49.900;8.208;2023-07-29T06:35:18;20.10;99.90
18456;DHT22;9357;49.900;8.208;2023-07-29T06:36:50;20.00;99.90
18456;DHT22;9357;49.900;8.208;2023-07-29T06:38:22;20.10;99.90
18456;DHT22;9357;49.900;8.208;2023-07-29T06:39:54;20.00;99.90
18456;DHT22;9357;49.900;8.208;2023-07-29T06:41:27;20.00;99.90
18456;DHT22;9357;49.900;8.208;2023-07-29T06:43:00;20.10;99.90
18456;DHT22;9357;49.900;8.208;2023-07-29T06:44:32;20.10;99.90
18456;DHT22;9357;49.900;8.208;2023-07-29T06:46:05;20.10;99.90
18456;DHT22;9357;49.900;8.208;2023-07-29T06:47:37;20.10;99.90
18456;DHT22;9357;49.900;8.208;2023-07-29T06:49:11;20.10;99.90
18456;DHT22;9357;49.900;8.208;2023-07-29T06:50:43;20.00;99.90
18456;DHT22;9357;49.900;8.208;2023-07-29T06:52:16;20.00;99.90
18456;DHT22;9357;49.900;8.208;2023-07-29T06:53:47;20.00;99.90
18456;DHT22;9357;49.900;8.208;2023-07-29T06:55:20;20.00;99.90
18456;DHT22;9357;49.900;8.208;2023-07-29T06:56:53;20.00;99.90
18456;DHT22;9357;49.900;8.208;2023-07-29T06:58:25;20.00;99.90
18456;DHT22;9357;49.900;8.208;2023-07-29T06:59:57;20.00;99.90
18456;DHT22;9357;49.900;8.208;2023-07-29T07:01:29;20.00;99.90
18456;DHT22;9357;49.900;8.208;2023-07-29T07:03:02;20.00;99.90
18456;DHT22;9357;49.900;8.208;2023-07-29T07:04:35;20.00;99.90
18456;DHT22;9357;49.900;8.208;2023-07-29T07:06:08;20.00;99.90
18456;DHT22;9357;49.900;8.208;2023-07-29T07:07:40;20.00;99.90
18456;DHT22;9357;49.900;8.208;2023-07-29T07:09:13;20.00;99.90
18456;DHT22;9357;49.900;8.208;2023-07-29T07:10:46;20.10;99.90
18456;DHT22;9357;49.900;8.208;2023-07-29T07:12:19;20.00;99.90
18456;DHT22;9357;49.900;8.208;2023-07-29T07:13:51;20.00;99.90
18456;DHT22;9357;49.900;8.208;2023-07-29T07:15:24;20.10;99.90
18456;DHT22;9357;49.900;8.208;2023-07-29T07:16:56;20.00;99.90
18456;DHT22;9357;49.900;8.208;2023-07-29T07:18:28;20.10;99.90
18456;DHT22;9357;49.900;8.208;2023-07-29T07:20:02;20.10;99.90
18456;DHT22;9357;49.900;8.208;2023-07-29T07:21:35;20.10;99.90
18456;DHT22;9357;49.900;8.208;2023-07-29T07:23:07;20.10;99.90
18456;DHT22;9357;49.900;8.208;2023-07-29T07:24:44;20.10;99.90
18456;DHT22;9357;49.900;8.208;2023-07-29T07:26:15;20.10;99.90
18456;DHT22;9357;49.900;8.208;2023-07-29T07:27:48;20.00;99.90
18456;DHT22;9357;49.900;8.208;2023-07-29T07:29:21;20.00;99.90
18456;DHT22;9357;49.900;8.208;2023-07-29T07:30:53;20.00;99.90
18456;DHT22;9357;49.900;8.208;2023-07-29T07:32:27;20.00;99.90
18456;DHT22;9357;49.900;8.208;2023-07-29T07:33:59;20.00;99.90
18456;DHT22;9357;49.900;8.208;2023-07-29T07:35:34;20.00;99.90
18456;DHT22;9357;49.900;8.208;2023-07-29T07:37:06;20.00;99.90
18456;DHT22;9357;49.900;8.208;2023-07-29T07:38:38;20.00;99.90
18456;DHT22;9357;49.900;8.208;2023-07-29T07:40:11;20.00;99.90
18456;DHT22;9357;49.900;8.208;2023-07-29T07:41:44;20.00;99.90
18456;DHT22;9357;49.900;8.208;2023-07-29T07:43:15;20.00;99.90
18456;DHT22;9357;49.900;8.208;2023-07-29T07:44:48;19.90;99.90
18456;DHT22;9357;49.900;8.208;2023-07-29T07:46:21;20.00;99.90
18456;DHT22;9357;49.900;8.208;2023-07-29T07:47:53;19.90;99.90
18456;DHT22;9357;49.900;8.208;2023-07-29T07:49:26;20.00;99.90
18456;DHT22;9357;49.900;8.208;2023-07-29T07:50:59;20.00;99.90
18456;DHT22;9357;49.900;8.208;2023-07-29T07:52:31;19.90;99.90
18456;DHT22;9357;49.900;8.208;2023-07-29T07:54:03;19.90;99.90
18456;DHT22;9357;49.900;8.208;2023-07-29T07:55:36;19.90;99.90
18456;DHT22;9357;49.900;8.208;2023-07-29T07:57:08;20.00;99.90
18456;DHT22;9357;49.900;8.208;2023-07-29T07:58:40;20.10;99.90
18456;DHT22;9357;49.900;8.208;2023-07-29T08:00:13;20.30;99.90
18456;DHT22;9357;49.900;8.208;2023-07-29T08:01:47;20.40;99.90
18456;DHT22;9357;49.900;8.208;2023-07-29T08:03:19;20.60;99.90
18456;DHT22;9357;49.900;8.208;2023-07-29T08:04:51;20.70;99.90
18456;DHT22;9357;49.900;8.208;2023-07-29T08:06:25;20.80;99.90
18456;DHT22;9357;49.900;8.208;2023-07-29T08:07:57;20.80;99.90
18456;DHT22;9357;49.900;8.208;2023-07-29T08:09:30;20.90;99.90
18456;DHT22;9357;49.900;8.208;2023-07-29T08:11:02;20.90;99.90
18456;DHT22;9357;49.900;8.208;2023-07-29T08:12:35;21.00;99.90
18456;DHT22;9357;49.900;8.208;2023-07-29T08:14:06;21.10;99.90
18456;DHT22;9357;49.900;8.208;2023-07-29T08:15:39;21.10;99.90
18456;DHT22;9357;49.900;8.208;2023-07-29T08:17:12;21.20;99.90
18456;DHT22;9357;49.900;8.208;2023-07-29T08:18:45;21.20;99.90
18456;DHT22;9357;49.900;8.208;2023-07-29T08:20:17;21.30;99.90
18456;DHT22;9357;49.900;8.208;2023-07-29T08:21:51;21.30;99.90
18456;DHT22;9357;49.900;8.208;2023-07-29T08:23:23;21.30;99.90
18456;DHT22;9357;49.900;8.208;2023-07-29T08:24:56;21.40;99.90
18456;DHT22;9357;49.900;8.208;2023-07-29T08:26:29;21.50;99.90
18456;DHT22;9357;49.900;8.208;2023-07-29T08:28:01;21.60;99.90
18456;DHT22;9357;49.900;8.208;2023-07-29T08:29:33;21.70;99.90
18456;DHT22;9357;49.900;8.208;2023-07-29T08:31:06;21.70;99.90
18456;DHT22;9357;49.900;8.208;2023-07-29T08:32:39;21.80;99.90
18456;DHT22;9357;49.900;8.208;2023-07-29T08:34:11;21.90;99.90
18456;DHT22;9357;49.900;8.208;2023-07-29T08:35:43;21.90;99.90
18456;DHT22;9357;49.900;8.208;2023-07-29T08:37:17;22.10;99.90
18456;DHT22;9357;49.900;8.208;2023-07-29T08:38:49;22.30;99.90
18456;DHT22;9357;49.900;8.208;2023-07-29T08:40:27;22.50;99.90
18456;DHT22;9357;49.900;8.208;2023-07-29T08:42:04;22.80;99.90
18456;DHT22;9357;49.900;8.208;2023-07-29T08:43:39;23.10;99.90
18456;DHT22;9357;49.900;8.208;2023-07-29T08:45:14;23.40;99.90
18456;DHT22;9357;49.900;8.208;2023-07-29T08:46:48;23.60;99.90
18456;DHT22;9357;49.900;8.208;2023-07-29T08:48:31;23.70;99.90
18456;DHT22;9357;49.900;8.208;2023-07-29T08:50:06;23.90;99.90
18456;DHT22;9357;49.900;8.208;2023-07-29T08:51:39;24.10;99.90
18456;DHT22;9357;49.900;8.208;2023-07-29T08:53:14;24.30;99.90
18456;DHT22;9357;49.900;8.208;2023-07-29T08:54:47;24.40;99.90
18456;DHT22;9357;49.900;8.208;2023-07-29T08:56:20;24.60;99.90
18456;DHT22;9357;49.900;8.208;2023-07-29T08:57:53;24.70;99.90
18456;DHT22;9357;49.900;8.208;2023-07-29T08:59:26;24.80;99.90
18456;DHT22;9357;49.900;8.208;2023-07-29T09:01:01;24.80;99.90
18456;DHT22;9357;49.900;8.208;2023-07-29T09:02:33;24.80;99.90
18456;DHT22;9357;49.900;8.208;2023-07-29T09:04:06;24.80;99.90
18456;DHT22;9357;49.900;8.208;2023-07-29T09:05:37;24.70;99.90
18456;DHT22;9357;49.900;8.208;2023-07-29T09:07:10;24.60;99.90
18456;DHT22;9357;49.900;8.208;2023-07-29T09:08:44;24.60;99.90
18456;DHT22;9357;49.900;8.208;2023-07-29T09:10:21;24.60;99.90
18456;DHT22;9357;49.900;8.208;2023-07-29T09:11:53;24.70;99.90
18456;DHT22;9357;49.900;8.208;2023-07-29T09:13:26;24.70;99.90
18456;DHT22;9357;49.900;8.208;2023-07-29T09:14:58;24.70;99.90
18456;DHT22;9357;49.900;8.208;2023-07-29T09:16:31;24.70;99.90
18456;DHT22;9357;49.900;8.208;2023-07-29T09:18:13;24.70;99.90
18456;DHT22;9357;49.900;8.208;2023-07-29T09:19:47;24.70;99.90
18456;DHT22;9357;49.900;8.208;2023-07-29T09:21:24;24.60;99.90
18456;DHT22;9357;49.900;8.208;2023-07-29T09:22:59;24.60;99.90
18456;DHT22;9357;49.900;8.208;2023-07-29T09:24:33;24.70;99.90
18456;DHT22;9357;49.900;8.208;2023-07-29T09:26:06;24.70;99.90
18456;DHT22;9357;49.900;8.208;2023-07-29T09:27:39;24.70;99.90
18456;DHT22;9357;49.900;8.208;2023-07-29T09:29:11;24.70;99.90
18456;DHT22;9357;49.900;8.208;2023-07-29T09:30:46;24.70;99.90
18456;DHT22;9357;49.900;8.208;2023-07-29T09:32:19;24.70;99.90
18456;DHT22;9357;49.900;8.208;2023-07-29T09:33:55;24.70;99.90
18456;DHT22;9357;49.900;8.208;2023-07-29T09:35:29;24.70;99.90
18456;DHT22;9357;49.900;8.208;2023-07-29T09:37:03;24.80;99.90
18456;DHT22;9357;49.900;8.208;2023-07-29T09:38:35;24.80;99.90
18456;DHT22;9357;49.900;8.208;2023-07-29T09:40:14;24.80;99.90
18456;DHT22;9357;49.900;8.208;2023-07-29T09:41:47;24.80;99.90
18456;DHT22;9357;49.900;8.208;2023-07-29T09:43:25;24.80;99.90
18456;DHT22;9357;49.900;8.208;2023-07-29T09:44:57;24.70;99.90
18456;DHT22;9357;49.900;8.208;2023-07-29T09:46:32;24.70;99.90
18456;DHT22;9357;49.900;8.208;2023-07-29T09:48:05;24.80;99.90
18456;DHT22;9357;49.900;8.208;2023-07-29T09:49:41;24.80;99.90
18456;DHT22;9357;49.900;8.208;2023-07-29T09:51:15;24.90;99.90
18456;DHT22;9357;49.900;8.208;2023-07-29T09:52:49;25.20;99.90
18456;DHT22;9357;49.900;8.208;2023-07-29T09:54:22;25.30;99.90
18456;DHT22;9357;49.900;8.208;2023-07-29T09:55:56;25.40;99.90
18456;DHT22;9357;49.900;8.208;2023-07-29T09:57:30;25.50;99.90